WMT4008 LRIA-LEBL
Flight info
| Callsign | WMT4008 |
|---|---|
| Flight time | 2h 57m |
| Altitude | 38000 |
| Route | ARPIG P133 TOMUC DCT BUDOP DCT MAVIR DCT VEBAL DCT TULIK DCT GEKBA DCT VAMTU DCT KOLON DCT GANGU DCT PADKO DCT DIVKO DCT NILDU DCT BISBA |
| Aircraft | A320/M-SDE3FGHIRWY/LB1 |
Departure
| Time | 2026-04-16 10:48 |
|---|---|
| Airport | Iaşi International Airport (LRIA) |
Arrival
| Time | 2026-04-16 13:45 |
|---|---|
| Airport | Josep Tarradellas Barcelona-El Prat Airport (LEBL) |
| Time | Latitude | Longitude | Altitude | Speed | Heading |
|---|---|---|---|---|---|
| 2026-04-16 10:28 | 47.17530 | 27.61981 | 374 ft | 0 kts | 274° |
| 2026-04-16 10:37 | 47.17529 | 27.61987 | 374 ft | 3 kts | 270° |
| 2026-04-16 10:37 | 47.17535 | 27.62018 | 374 ft | 4 kts | 258° |
| 2026-04-16 10:37 | 47.17536 | 27.62055 | 374 ft | 4 kts | 297° |
| 2026-04-16 10:37 | 47.17526 | 27.62075 | 374 ft | 4 kts | 330° |
| 2026-04-16 10:38 | 47.17518 | 27.62082 | 374 ft | 1 kts | 334° |
| 2026-04-16 10:43 | 47.17521 | 27.62079 | 374 ft | 2 kts | 334° |
| 2026-04-16 10:43 | 47.17537 | 27.62068 | 374 ft | 4 kts | 334° |
| 2026-04-16 10:43 | 47.17572 | 27.62042 | 374 ft | 8 kts | 334° |
| 2026-04-16 10:43 | 47.17631 | 27.62000 | 374 ft | 11 kts | 333° |
| 2026-04-16 10:44 | 47.17704 | 27.61946 | 374 ft | 13 kts | 333° |
| 2026-04-16 10:44 | 47.17778 | 27.61981 | 372 ft | 15 kts | 67° |
| 2026-04-16 10:44 | 47.17828 | 27.62129 | 371 ft | 18 kts | 62° |
| 2026-04-16 10:44 | 47.17928 | 27.62177 | 371 ft | 17 kts | 340° |
| 2026-04-16 10:45 | 47.18032 | 27.62086 | 375 ft | 18 kts | 328° |
| 2026-04-16 10:45 | 47.18146 | 27.61986 | 380 ft | 20 kts | 329° |
| 2026-04-16 10:45 | 47.18274 | 27.61875 | 386 ft | 22 kts | 328° |
| 2026-04-16 10:45 | 47.18413 | 27.61749 | 392 ft | 25 kts | 329° |
| 2026-04-16 10:46 | 47.18567 | 27.61613 | 396 ft | 27 kts | 329° |
| 2026-04-16 10:46 | 47.18729 | 27.61470 | 406 ft | 27 kts | 329° |
| 2026-04-16 10:46 | 47.18889 | 27.61365 | 412 ft | 24 kts | 356° |
| 2026-04-16 10:46 | 47.18935 | 27.61308 | 414 ft | 3 kts | 218° |
| 2026-04-16 10:47 | 47.18899 | 27.61320 | 413 ft | 0 kts | 150° |
| 2026-04-16 10:47 | 47.18895 | 27.61323 | 413 ft | 2 kts | 150° |
| 2026-04-16 10:47 | 47.18850 | 27.61361 | 411 ft | 27 kts | 149° |
| 2026-04-16 10:47 | 47.18453 | 27.61717 | 393 ft | 102 kts | 149° |
| 2026-04-16 10:48 | 47.17672 | 27.62416 | 373 ft | 157 kts | 148° |
| 2026-04-16 10:48 | 47.16732 | 27.63241 | 1022 ft | 155 kts | 149° |
| 2026-04-16 10:48 | 47.15786 | 27.64047 | 1838 ft | 159 kts | 151° |
| 2026-04-16 10:48 | 47.14818 | 27.64894 | 2359 ft | 168 kts | 149° |
| 2026-04-16 10:49 | 47.13748 | 27.65852 | 2690 ft | 191 kts | 150° |
| 2026-04-16 10:49 | 47.12554 | 27.66923 | 3091 ft | 217 kts | 150° |
| 2026-04-16 10:49 | 47.11219 | 27.68114 | 3628 ft | 230 kts | 150° |
| 2026-04-16 10:49 | 47.09889 | 27.69289 | 4347 ft | 237 kts | 149° |
| 2026-04-16 10:50 | 47.08450 | 27.70562 | 5029 ft | 245 kts | 149° |
| 2026-04-16 10:50 | 47.06971 | 27.71876 | 5741 ft | 251 kts | 148° |
| 2026-04-16 10:50 | 47.05474 | 27.73192 | 6456 ft | 257 kts | 152° |
| 2026-04-16 10:50 | 47.03762 | 27.73818 | 7127 ft | 262 kts | 186° |
| 2026-04-16 10:51 | 47.02085 | 27.72876 | 7864 ft | 262 kts | 223° |
| 2026-04-16 10:51 | 47.01090 | 27.70675 | 8616 ft | 259 kts | 260° |
| 2026-04-16 10:51 | 47.01167 | 27.68103 | 9363 ft | 255 kts | 294° |
| 2026-04-16 10:51 | 47.02260 | 27.66109 | 10098 ft | 256 kts | 328° |
| 2026-04-16 10:52 | 47.03881 | 27.64809 | 10438 ft | 274 kts | 328° |
| 2026-04-16 10:52 | 47.05452 | 27.63172 | 11014 ft | 280 kts | 321° |
| 2026-04-16 10:52 | 47.06956 | 27.61324 | 11701 ft | 283 kts | 319° |
| 2026-04-16 10:52 | 47.08453 | 27.59421 | 12433 ft | 286 kts | 319° |
| 2026-04-16 10:53 | 47.09976 | 27.57518 | 13145 ft | 288 kts | 319° |
| 2026-04-16 10:53 | 47.11533 | 27.55630 | 13863 ft | 291 kts | 320° |
| 2026-04-16 10:53 | 47.13096 | 27.53784 | 14506 ft | 293 kts | 321° |
| 2026-04-16 10:53 | 47.14707 | 27.51916 | 15128 ft | 296 kts | 321° |
| 2026-04-16 10:54 | 47.16338 | 27.50041 | 15752 ft | 298 kts | 321° |
| 2026-04-16 10:54 | 47.17978 | 27.48166 | 16368 ft | 301 kts | 321° |
| 2026-04-16 10:54 | 47.19640 | 27.46269 | 16992 ft | 303 kts | 321° |
| 2026-04-16 10:54 | 47.21315 | 27.44357 | 17584 ft | 306 kts | 321° |
| 2026-04-16 10:55 | 47.23001 | 27.42426 | 18166 ft | 309 kts | 321° |
| 2026-04-16 10:55 | 47.24704 | 27.40476 | 18729 ft | 311 kts | 321° |
| 2026-04-16 10:55 | 47.26422 | 27.38506 | 19238 ft | 313 kts | 321° |
| 2026-04-16 10:55 | 47.28146 | 27.36523 | 19771 ft | 315 kts | 321° |
| 2026-04-16 10:56 | 47.29883 | 27.34528 | 20301 ft | 317 kts | 321° |
| 2026-04-16 10:56 | 47.31627 | 27.32522 | 20817 ft | 319 kts | 321° |
| 2026-04-16 10:56 | 47.33259 | 27.30322 | 21309 ft | 319 kts | 310° |
| 2026-04-16 10:56 | 47.34554 | 27.27615 | 21552 ft | 329 kts | 298° |
| 2026-04-16 10:57 | 47.35648 | 27.24580 | 21687 ft | 341 kts | 298° |
| 2026-04-16 10:57 | 47.36777 | 27.21442 | 21821 ft | 353 kts | 298° |
| 2026-04-16 10:57 | 47.37950 | 27.18192 | 21951 ft | 364 kts | 298° |
| 2026-04-16 10:57 | 47.39159 | 27.14847 | 22200 ft | 372 kts | 298° |
| 2026-04-16 10:58 | 47.40385 | 27.11459 | 22616 ft | 375 kts | 298° |
| 2026-04-16 10:58 | 47.41619 | 27.08045 | 23072 ft | 377 kts | 298° |
| 2026-04-16 10:58 | 47.42857 | 27.04616 | 23538 ft | 379 kts | 298° |
| 2026-04-16 10:58 | 47.44103 | 27.01164 | 23952 ft | 381 kts | 298° |
| 2026-04-16 10:59 | 47.45346 | 26.97710 | 24327 ft | 383 kts | 298° |
| 2026-04-16 10:59 | 47.46598 | 26.94225 | 24699 ft | 385 kts | 298° |
| 2026-04-16 10:59 | 47.47857 | 26.90718 | 25070 ft | 386 kts | 298° |
| 2026-04-16 10:59 | 47.49041 | 26.87132 | 25428 ft | 388 kts | 291° |
| 2026-04-16 11:00 | 47.49793 | 26.83296 | 25769 ft | 391 kts | 281° |
| 2026-04-16 11:00 | 47.50052 | 26.79270 | 26125 ft | 394 kts | 271° |
| 2026-04-16 11:00 | 47.49799 | 26.75214 | 26467 ft | 399 kts | 262° |
| 2026-04-16 11:00 | 47.49279 | 26.71231 | 26802 ft | 400 kts | 261° |
| 2026-04-16 11:01 | 47.48748 | 26.67171 | 27152 ft | 402 kts | 261° |
| 2026-04-16 11:01 | 47.48218 | 26.63097 | 27484 ft | 404 kts | 261° |
| 2026-04-16 11:01 | 47.47687 | 26.59008 | 27827 ft | 406 kts | 261° |
| 2026-04-16 11:01 | 47.47151 | 26.54891 | 28170 ft | 408 kts | 261° |
| 2026-04-16 11:02 | 47.46610 | 26.50753 | 28504 ft | 410 kts | 261° |
| 2026-04-16 11:02 | 47.46064 | 26.46592 | 28860 ft | 413 kts | 261° |
| 2026-04-16 11:02 | 47.45516 | 26.42419 | 29261 ft | 413 kts | 261° |
| 2026-04-16 11:02 | 47.44966 | 26.38267 | 29773 ft | 411 kts | 261° |
| 2026-04-16 11:03 | 47.44415 | 26.34135 | 30267 ft | 410 kts | 261° |
| 2026-04-16 11:03 | 47.43863 | 26.29997 | 30681 ft | 408 kts | 261° |
| 2026-04-16 11:03 | 47.42769 | 26.21785 | 31522 ft | 406 kts | 261° |
| 2026-04-16 11:04 | 47.42223 | 26.17701 | 31950 ft | 405 kts | 261° |
| 2026-04-16 11:04 | 47.41675 | 26.13637 | 32379 ft | 403 kts | 261° |
| 2026-04-16 11:04 | 47.41123 | 26.09578 | 32810 ft | 402 kts | 261° |
| 2026-04-16 11:04 | 47.40572 | 26.05537 | 33239 ft | 401 kts | 261° |
| 2026-04-16 11:05 | 47.40023 | 26.01506 | 33672 ft | 399 kts | 261° |
| 2026-04-16 11:05 | 47.39474 | 25.97500 | 34067 ft | 398 kts | 261° |
| 2026-04-16 11:05 | 47.38924 | 25.93493 | 34418 ft | 397 kts | 261° |
| 2026-04-16 11:05 | 47.38375 | 25.89493 | 34682 ft | 398 kts | 261° |
| 2026-04-16 11:06 | 47.37829 | 25.85494 | 34953 ft | 398 kts | 261° |
| 2026-04-16 11:06 | 47.37281 | 25.81488 | 35208 ft | 399 kts | 261° |
| 2026-04-16 11:06 | 47.36728 | 25.77470 | 35439 ft | 399 kts | 261° |
| 2026-04-16 11:06 | 47.36171 | 25.73450 | 35593 ft | 401 kts | 263° |
| 2026-04-16 11:07 | 47.35607 | 25.69397 | 35713 ft | 404 kts | 263° |
| 2026-04-16 11:07 | 47.35039 | 25.65315 | 35840 ft | 407 kts | 263° |
| 2026-04-16 11:07 | 47.34463 | 25.61202 | 35967 ft | 411 kts | 263° |
| 2026-04-16 11:07 | 47.33878 | 25.57042 | 36090 ft | 414 kts | 263° |
| 2026-04-16 11:08 | 47.33291 | 25.52866 | 36231 ft | 417 kts | 262° |
| 2026-04-16 11:08 | 47.32706 | 25.48714 | 36435 ft | 418 kts | 263° |
| 2026-04-16 11:08 | 47.32113 | 25.44507 | 36654 ft | 419 kts | 262° |
| 2026-04-16 11:08 | 47.31518 | 25.40301 | 36911 ft | 419 kts | 262° |
| 2026-04-16 11:09 | 47.30921 | 25.36097 | 37148 ft | 419 kts | 262° |
| 2026-04-16 11:09 | 47.30319 | 25.31875 | 37378 ft | 419 kts | 262° |
| 2026-04-16 11:09 | 47.29718 | 25.27669 | 37607 ft | 419 kts | 262° |
| 2026-04-16 11:09 | 47.29115 | 25.23459 | 37833 ft | 420 kts | 262° |
| 2026-04-16 11:10 | 47.28512 | 25.19265 | 38055 ft | 420 kts | 262° |
| 2026-04-16 11:10 | 47.27286 | 25.10791 | 38141 ft | 427 kts | 262° |
| 2026-04-16 11:11 | 47.26251 | 25.03640 | 38138 ft | 431 kts | 262° |
| 2026-04-16 11:11 | 47.24989 | 24.95001 | 38141 ft | 431 kts | 262° |
| 2026-04-16 11:12 | 47.23721 | 24.86349 | 38143 ft | 432 kts | 261° |
| 2026-04-16 11:12 | 47.22446 | 24.77712 | 38145 ft | 432 kts | 261° |
| 2026-04-16 11:13 | 47.21155 | 24.69051 | 38146 ft | 433 kts | 261° |
| 2026-04-16 11:13 | 47.19868 | 24.60387 | 38148 ft | 433 kts | 261° |
| 2026-04-16 11:14 | 47.18589 | 24.51797 | 38153 ft | 433 kts | 261° |
| 2026-04-16 11:14 | 47.17271 | 24.43081 | 38156 ft | 434 kts | 261° |
| 2026-04-16 11:15 | 47.15957 | 24.34419 | 38157 ft | 434 kts | 261° |
| 2026-04-16 11:15 | 47.14636 | 24.25760 | 38158 ft | 434 kts | 261° |
| 2026-04-16 11:16 | 47.13314 | 24.17142 | 38157 ft | 434 kts | 261° |
| 2026-04-16 11:16 | 47.11979 | 24.08487 | 38160 ft | 434 kts | 261° |
| 2026-04-16 11:17 | 47.10639 | 23.99829 | 38161 ft | 435 kts | 261° |
| 2026-04-16 11:17 | 47.09290 | 23.91171 | 38156 ft | 435 kts | 260° |
| 2026-04-16 11:18 | 47.07930 | 23.82495 | 38162 ft | 436 kts | 260° |
| 2026-04-16 11:18 | 47.06570 | 23.73833 | 38156 ft | 436 kts | 260° |
| 2026-04-16 11:19 | 47.05202 | 23.65168 | 38158 ft | 436 kts | 260° |
| 2026-04-16 11:19 | 47.03826 | 23.56510 | 38162 ft | 436 kts | 260° |
| 2026-04-16 11:20 | 47.02440 | 23.47855 | 38162 ft | 436 kts | 260° |
| 2026-04-16 11:20 | 47.01048 | 23.39193 | 38166 ft | 435 kts | 260° |
| 2026-04-16 11:21 | 46.99660 | 23.30615 | 38173 ft | 435 kts | 259° |
| 2026-04-16 11:21 | 46.98257 | 23.21979 | 38172 ft | 435 kts | 259° |
| 2026-04-16 11:22 | 46.96848 | 23.13367 | 38176 ft | 435 kts | 259° |
| 2026-04-16 11:22 | 46.95432 | 23.04731 | 38177 ft | 435 kts | 259° |
| 2026-04-16 11:23 | 46.94012 | 22.96124 | 38178 ft | 435 kts | 259° |
| 2026-04-16 11:23 | 46.92585 | 22.87507 | 38180 ft | 435 kts | 259° |
| 2026-04-16 11:24 | 46.91152 | 22.78898 | 38182 ft | 435 kts | 259° |
| 2026-04-16 11:24 | 46.89721 | 22.70343 | 38184 ft | 435 kts | 259° |
| 2026-04-16 11:25 | 46.88270 | 22.61750 | 38184 ft | 435 kts | 259° |
| 2026-04-16 11:25 | 46.86818 | 22.53146 | 38183 ft | 435 kts | 259° |
| 2026-04-16 11:26 | 46.85358 | 22.44553 | 38183 ft | 435 kts | 258° |
| 2026-04-16 11:26 | 46.83895 | 22.36012 | 38155 ft | 426 kts | 257° |
| 2026-04-16 11:27 | 46.82470 | 22.27679 | 38167 ft | 422 kts | 257° |
| 2026-04-16 11:27 | 46.81047 | 22.19395 | 38171 ft | 422 kts | 257° |
| 2026-04-16 11:28 | 46.79602 | 22.11066 | 38162 ft | 423 kts | 257° |
| 2026-04-16 11:28 | 46.78148 | 22.02737 | 38169 ft | 423 kts | 257° |
| 2026-04-16 11:29 | 46.76698 | 21.94446 | 38170 ft | 423 kts | 257° |
| 2026-04-16 11:29 | 46.75233 | 21.86101 | 38172 ft | 424 kts | 257° |
| 2026-04-16 11:30 | 46.73762 | 21.77766 | 38168 ft | 424 kts | 257° |
| 2026-04-16 11:30 | 46.72289 | 21.69446 | 38174 ft | 424 kts | 257° |
| 2026-04-16 11:31 | 46.70809 | 21.61128 | 38168 ft | 424 kts | 257° |
| 2026-04-16 11:31 | 46.69314 | 21.52804 | 38168 ft | 424 kts | 256° |
| 2026-04-16 11:32 | 46.67850 | 21.44523 | 38170 ft | 424 kts | 257° |
| 2026-04-16 11:32 | 46.66483 | 21.36166 | 38172 ft | 424 kts | 258° |
| 2026-04-16 11:33 | 46.65116 | 21.27746 | 38172 ft | 424 kts | 257° |
| 2026-04-16 11:33 | 46.63733 | 21.19434 | 38174 ft | 424 kts | 257° |
| 2026-04-16 11:34 | 46.62324 | 21.11092 | 38174 ft | 424 kts | 257° |
| 2026-04-16 11:34 | 46.60908 | 21.02744 | 38172 ft | 425 kts | 257° |
| 2026-04-16 11:35 | 46.59495 | 20.94382 | 38176 ft | 425 kts | 257° |
| 2026-04-16 11:35 | 46.58070 | 20.86027 | 38176 ft | 425 kts | 257° |
| 2026-04-16 11:36 | 46.56648 | 20.77742 | 38172 ft | 425 kts | 257° |
| 2026-04-16 11:36 | 46.55205 | 20.69395 | 38175 ft | 425 kts | 257° |
| 2026-04-16 11:37 | 46.53759 | 20.61047 | 38173 ft | 425 kts | 257° |
| 2026-04-16 11:37 | 46.52310 | 20.52673 | 38148 ft | 429 kts | 257° |
| 2026-04-16 11:38 | 46.50845 | 20.44294 | 38149 ft | 431 kts | 257° |
| 2026-04-16 11:38 | 46.49360 | 20.35842 | 38168 ft | 432 kts | 257° |
| 2026-04-16 11:39 | 46.47871 | 20.27397 | 38177 ft | 432 kts | 257° |
| 2026-04-16 11:39 | 46.46377 | 20.18936 | 38180 ft | 432 kts | 257° |
| 2026-04-16 11:40 | 46.44868 | 20.10489 | 38181 ft | 432 kts | 257° |
| 2026-04-16 11:40 | 46.43355 | 20.02056 | 38185 ft | 432 kts | 257° |
| 2026-04-16 11:41 | 46.41834 | 19.93612 | 38190 ft | 432 kts | 256° |
| 2026-04-16 11:41 | 46.40568 | 19.86604 | 38191 ft | 432 kts | 256° |
| 2026-04-16 11:42 | 46.38873 | 19.76787 | 38193 ft | 431 kts | 258° |
| 2026-04-16 11:42 | 46.37829 | 19.69655 | 38197 ft | 431 kts | 259° |
| 2026-04-16 11:43 | 46.36624 | 19.61155 | 38195 ft | 431 kts | 259° |
| 2026-04-16 11:43 | 46.35376 | 19.52709 | 38198 ft | 431 kts | 259° |
| 2026-04-16 11:44 | 46.34081 | 19.44246 | 38193 ft | 430 kts | 258° |
| 2026-04-16 11:44 | 46.32780 | 19.35788 | 38193 ft | 430 kts | 258° |
| 2026-04-16 11:45 | 46.31478 | 19.27339 | 38191 ft | 430 kts | 258° |
| 2026-04-16 11:45 | 46.30171 | 19.18889 | 38191 ft | 430 kts | 258° |
| 2026-04-16 11:46 | 46.28859 | 19.10443 | 38191 ft | 430 kts | 258° |
| 2026-04-16 11:46 | 46.27552 | 19.02012 | 38191 ft | 429 kts | 258° |
| 2026-04-16 11:47 | 46.26232 | 18.93601 | 38195 ft | 429 kts | 258° |
| 2026-04-16 11:47 | 46.24901 | 18.85191 | 38189 ft | 429 kts | 258° |
| 2026-04-16 11:48 | 46.23570 | 18.76788 | 38201 ft | 429 kts | 258° |
| 2026-04-16 11:48 | 46.22233 | 18.68389 | 38194 ft | 429 kts | 258° |
| 2026-04-16 11:49 | 46.20897 | 18.60047 | 38191 ft | 428 kts | 258° |
| 2026-04-16 11:49 | 46.19545 | 18.51669 | 38194 ft | 428 kts | 258° |
| 2026-04-16 11:50 | 46.18192 | 18.43285 | 38196 ft | 428 kts | 258° |
| 2026-04-16 11:50 | 46.16833 | 18.34910 | 38203 ft | 428 kts | 258° |
| 2026-04-16 11:51 | 46.15465 | 18.26536 | 38199 ft | 429 kts | 258° |
| 2026-04-16 11:51 | 46.14092 | 18.18170 | 38203 ft | 429 kts | 258° |
| 2026-04-16 11:52 | 46.12704 | 18.09798 | 38201 ft | 429 kts | 257° |
| 2026-04-16 11:52 | 46.11313 | 18.01423 | 38198 ft | 429 kts | 258° |
| 2026-04-16 11:53 | 46.09926 | 17.93069 | 38196 ft | 429 kts | 258° |
| 2026-04-16 11:53 | 46.08530 | 17.84700 | 38195 ft | 430 kts | 257° |
| 2026-04-16 11:54 | 46.07120 | 17.76326 | 38193 ft | 430 kts | 257° |
| 2026-04-16 11:54 | 46.05703 | 17.67960 | 38191 ft | 430 kts | 257° |
| 2026-04-16 11:55 | 46.04281 | 17.59585 | 38193 ft | 430 kts | 257° |
| 2026-04-16 11:55 | 46.02846 | 17.51212 | 38197 ft | 430 kts | 257° |
| 2026-04-16 11:56 | 46.01409 | 17.42829 | 38195 ft | 431 kts | 257° |
| 2026-04-16 11:56 | 45.99974 | 17.34457 | 38195 ft | 431 kts | 257° |
| 2026-04-16 11:57 | 45.98556 | 17.26074 | 38201 ft | 431 kts | 258° |
| 2026-04-16 11:57 | 45.97402 | 17.17676 | 38204 ft | 431 kts | 261° |
| 2026-04-16 11:58 | 45.96326 | 17.09143 | 38203 ft | 431 kts | 261° |
| 2026-04-16 11:58 | 45.95200 | 17.00728 | 38208 ft | 431 kts | 260° |
| 2026-04-16 11:59 | 45.94021 | 16.92285 | 38205 ft | 431 kts | 259° |
| 2026-04-16 11:59 | 45.92833 | 16.83847 | 38212 ft | 431 kts | 260° |
| 2026-04-16 12:00 | 45.91650 | 16.75408 | 38202 ft | 430 kts | 259° |
| 2026-04-16 12:00 | 45.90465 | 16.66981 | 38207 ft | 430 kts | 259° |
| 2026-04-16 12:01 | 45.89274 | 16.58564 | 38213 ft | 430 kts | 259° |
| 2026-04-16 12:01 | 45.88076 | 16.50155 | 38207 ft | 430 kts | 259° |
| 2026-04-16 12:02 | 45.86270 | 16.37563 | 38210 ft | 429 kts | 259° |
| 2026-04-16 12:02 | 45.85058 | 16.29180 | 38210 ft | 429 kts | 259° |
| 2026-04-16 12:03 | 45.83834 | 16.20797 | 38208 ft | 429 kts | 259° |
| 2026-04-16 12:03 | 45.82609 | 16.12423 | 38211 ft | 429 kts | 259° |
| 2026-04-16 12:04 | 45.81381 | 16.04044 | 38209 ft | 429 kts | 259° |
| 2026-04-16 12:04 | 45.80142 | 15.95681 | 38208 ft | 429 kts | 259° |
| 2026-04-16 12:05 | 45.78900 | 15.87319 | 38214 ft | 429 kts | 259° |
| 2026-04-16 12:05 | 45.77652 | 15.78959 | 38210 ft | 429 kts | 259° |
| 2026-04-16 12:06 | 45.76404 | 15.70661 | 38211 ft | 429 kts | 259° |
| 2026-04-16 12:06 | 45.75146 | 15.62299 | 38209 ft | 429 kts | 259° |
| 2026-04-16 12:07 | 45.73885 | 15.53954 | 38210 ft | 429 kts | 258° |
| 2026-04-16 12:07 | 45.72607 | 15.45603 | 38215 ft | 429 kts | 258° |
| 2026-04-16 12:08 | 45.71325 | 15.37256 | 38219 ft | 429 kts | 258° |
| 2026-04-16 12:08 | 45.70037 | 15.28894 | 38213 ft | 429 kts | 258° |
| 2026-04-16 12:09 | 45.68745 | 15.20572 | 38224 ft | 429 kts | 258° |
| 2026-04-16 12:09 | 45.67447 | 15.12227 | 38218 ft | 429 kts | 258° |
| 2026-04-16 12:10 | 45.66145 | 15.03895 | 38203 ft | 428 kts | 258° |
| 2026-04-16 12:10 | 45.64842 | 14.95636 | 38204 ft | 428 kts | 258° |
| 2026-04-16 12:11 | 45.63529 | 14.87328 | 38204 ft | 428 kts | 258° |
| 2026-04-16 12:11 | 45.62214 | 14.79025 | 38199 ft | 428 kts | 258° |
| 2026-04-16 12:12 | 45.60892 | 14.70727 | 38194 ft | 428 kts | 258° |
| 2026-04-16 12:12 | 45.59564 | 14.62448 | 38182 ft | 428 kts | 257° |
| 2026-04-16 12:13 | 45.58224 | 14.54177 | 38178 ft | 427 kts | 257° |
| 2026-04-16 12:13 | 45.56891 | 14.45915 | 38179 ft | 427 kts | 257° |
| 2026-04-16 12:14 | 45.55773 | 14.39049 | 38176 ft | 426 kts | 257° |
| 2026-04-16 12:14 | 45.54421 | 14.30798 | 38160 ft | 426 kts | 257° |
| 2026-04-16 12:15 | 45.53064 | 14.22556 | 38161 ft | 426 kts | 257° |
| 2026-04-16 12:15 | 45.51702 | 14.14319 | 38152 ft | 426 kts | 257° |
| 2026-04-16 12:16 | 45.50342 | 14.06102 | 38155 ft | 425 kts | 257° |
| 2026-04-16 12:16 | 45.48970 | 13.97895 | 38152 ft | 425 kts | 257° |
| 2026-04-16 12:17 | 45.47595 | 13.89689 | 38142 ft | 425 kts | 257° |
| 2026-04-16 12:17 | 45.46218 | 13.81535 | 38142 ft | 426 kts | 257° |
| 2026-04-16 12:18 | 45.44830 | 13.73328 | 38152 ft | 426 kts | 257° |
| 2026-04-16 12:18 | 45.43480 | 13.65357 | 38137 ft | 426 kts | 257° |
| 2026-04-16 12:19 | 45.42087 | 13.57154 | 38139 ft | 426 kts | 256° |
| 2026-04-16 12:19 | 45.40675 | 13.48934 | 38137 ft | 426 kts | 256° |
| 2026-04-16 12:20 | 45.39258 | 13.40716 | 38148 ft | 426 kts | 256° |
| 2026-04-16 12:20 | 45.37832 | 13.32523 | 38150 ft | 426 kts | 256° |
| 2026-04-16 12:21 | 45.36407 | 13.24338 | 38151 ft | 426 kts | 256° |
| 2026-04-16 12:21 | 45.34982 | 13.16156 | 38154 ft | 426 kts | 256° |
| 2026-04-16 12:22 | 45.33552 | 13.07984 | 38152 ft | 426 kts | 256° |
| 2026-04-16 12:22 | 45.32111 | 12.99801 | 38154 ft | 426 kts | 256° |
| 2026-04-16 12:23 | 45.30661 | 12.91644 | 38165 ft | 426 kts | 256° |
| 2026-04-16 12:23 | 45.29207 | 12.83482 | 37745 ft | 426 kts | 256° |
| 2026-04-16 12:24 | 45.28480 | 12.79399 | 37241 ft | 425 kts | 256° |
| 2026-04-16 12:24 | 45.27759 | 12.75341 | 37116 ft | 422 kts | 256° |
| 2026-04-16 12:24 | 45.26309 | 12.67193 | 37152 ft | 428 kts | 256° |
| 2026-04-16 12:25 | 45.24843 | 12.58979 | 37154 ft | 429 kts | 256° |
| 2026-04-16 12:25 | 45.23369 | 12.50770 | 37153 ft | 429 kts | 256° |
| 2026-04-16 12:26 | 45.21900 | 12.42627 | 37159 ft | 428 kts | 256° |
| 2026-04-16 12:26 | 45.20415 | 12.34427 | 37164 ft | 428 kts | 256° |
| 2026-04-16 12:27 | 45.18927 | 12.26233 | 37172 ft | 429 kts | 256° |
| 2026-04-16 12:27 | 45.17431 | 12.18051 | 37175 ft | 429 kts | 256° |
| 2026-04-16 12:28 | 45.15933 | 12.09882 | 37176 ft | 428 kts | 256° |
| 2026-04-16 12:28 | 45.14424 | 12.01709 | 37177 ft | 428 kts | 256° |
| 2026-04-16 12:29 | 45.12911 | 11.93560 | 37185 ft | 428 kts | 256° |
| 2026-04-16 12:29 | 45.11400 | 11.85416 | 37185 ft | 427 kts | 256° |
| 2026-04-16 12:30 | 45.09877 | 11.77270 | 37185 ft | 427 kts | 256° |
| 2026-04-16 12:30 | 45.08349 | 11.69144 | 37195 ft | 427 kts | 255° |
| 2026-04-16 12:31 | 45.06810 | 11.61006 | 37197 ft | 427 kts | 255° |
| 2026-04-16 12:31 | 45.05288 | 11.52943 | 37203 ft | 427 kts | 255° |
| 2026-04-16 12:32 | 45.03744 | 11.44781 | 37195 ft | 427 kts | 255° |
| 2026-04-16 12:32 | 45.02196 | 11.36670 | 37191 ft | 427 kts | 255° |
| 2026-04-16 12:33 | 45.00638 | 11.28569 | 37186 ft | 427 kts | 255° |
| 2026-04-16 12:33 | 44.99092 | 11.20520 | 37181 ft | 427 kts | 255° |
| 2026-04-16 12:34 | 44.97531 | 11.12414 | 37179 ft | 427 kts | 255° |
| 2026-04-16 12:34 | 44.95959 | 11.04328 | 37180 ft | 426 kts | 255° |
| 2026-04-16 12:35 | 44.94383 | 10.96265 | 37180 ft | 426 kts | 255° |
| 2026-04-16 12:35 | 44.92806 | 10.88185 | 37186 ft | 426 kts | 255° |
| 2026-04-16 12:36 | 44.91225 | 10.80118 | 37193 ft | 426 kts | 255° |
| 2026-04-16 12:36 | 44.89621 | 10.72049 | 37201 ft | 427 kts | 255° |
| 2026-04-16 12:37 | 44.88018 | 10.63985 | 37197 ft | 427 kts | 255° |
| 2026-04-16 12:37 | 44.86418 | 10.55919 | 37189 ft | 427 kts | 255° |
| 2026-04-16 12:38 | 44.84818 | 10.47903 | 37181 ft | 427 kts | 255° |
| 2026-04-16 12:38 | 44.83192 | 10.39837 | 37181 ft | 427 kts | 255° |
| 2026-04-16 12:39 | 44.81572 | 10.31784 | 37173 ft | 427 kts | 255° |
| 2026-04-16 12:39 | 44.79948 | 10.23731 | 37177 ft | 428 kts | 255° |
| 2026-04-16 12:40 | 44.78317 | 10.15681 | 37178 ft | 428 kts | 255° |
| 2026-04-16 12:40 | 44.76676 | 10.07623 | 37177 ft | 428 kts | 255° |
| 2026-04-16 12:41 | 44.75020 | 9.99568 | 37176 ft | 428 kts | 255° |
| 2026-04-16 12:41 | 44.73367 | 9.91526 | 37155 ft | 428 kts | 255° |
| 2026-04-16 12:42 | 44.71705 | 9.83482 | 37154 ft | 428 kts | 255° |
| 2026-04-16 12:42 | 44.70036 | 9.75432 | 37149 ft | 429 kts | 255° |
| 2026-04-16 12:43 | 44.68359 | 9.67380 | 37150 ft | 429 kts | 255° |
| 2026-04-16 12:43 | 44.66679 | 9.59332 | 37148 ft | 429 kts | 255° |
| 2026-04-16 12:44 | 44.64999 | 9.51275 | 37151 ft | 429 kts | 255° |
| 2026-04-16 12:44 | 44.63311 | 9.43216 | 37154 ft | 430 kts | 255° |
| 2026-04-16 12:45 | 44.61615 | 9.35169 | 37148 ft | 430 kts | 255° |
| 2026-04-16 12:45 | 44.59907 | 9.27113 | 37147 ft | 430 kts | 255° |
| 2026-04-16 12:46 | 44.58482 | 9.20429 | 37142 ft | 430 kts | 255° |
| 2026-04-16 12:46 | 44.56754 | 9.12378 | 37133 ft | 431 kts | 255° |
| 2026-04-16 12:47 | 44.55026 | 9.04329 | 37128 ft | 431 kts | 255° |
| 2026-04-16 12:47 | 44.53294 | 8.96273 | 37117 ft | 431 kts | 255° |
| 2026-04-16 12:48 | 44.51554 | 8.88219 | 37110 ft | 432 kts | 255° |
| 2026-04-16 12:48 | 44.49811 | 8.80170 | 37110 ft | 432 kts | 255° |
| 2026-04-16 12:49 | 44.48052 | 8.72126 | 37108 ft | 432 kts | 255° |
| 2026-04-16 12:49 | 44.46282 | 8.64045 | 37106 ft | 432 kts | 255° |
| 2026-04-16 12:50 | 44.44515 | 8.55994 | 37109 ft | 433 kts | 255° |
| 2026-04-16 12:50 | 44.42754 | 8.47968 | 37117 ft | 433 kts | 255° |
| 2026-04-16 12:51 | 44.40973 | 8.39897 | 37122 ft | 434 kts | 255° |
| 2026-04-16 12:51 | 44.39178 | 8.31828 | 37131 ft | 435 kts | 255° |
| 2026-04-16 12:52 | 44.37375 | 8.23731 | 37129 ft | 436 kts | 255° |
| 2026-04-16 12:52 | 44.35564 | 8.15626 | 37124 ft | 436 kts | 255° |
| 2026-04-16 12:53 | 44.33742 | 8.07529 | 37126 ft | 437 kts | 255° |
| 2026-04-16 12:53 | 44.31924 | 7.99459 | 37127 ft | 438 kts | 255° |
| 2026-04-16 12:54 | 44.30093 | 7.91340 | 37128 ft | 438 kts | 255° |
| 2026-04-16 12:54 | 44.28218 | 7.83230 | 37138 ft | 440 kts | 251° |
| 2026-04-16 12:55 | 44.25092 | 7.75848 | 37136 ft | 447 kts | 232° |
| 2026-04-16 12:55 | 44.20534 | 7.69866 | 37131 ft | 451 kts | 224° |
| 2026-04-16 12:56 | 44.15817 | 7.64074 | 37133 ft | 451 kts | 224° |
| 2026-04-16 12:56 | 44.11543 | 7.57704 | 37141 ft | 449 kts | 232° |
| 2026-04-16 12:57 | 44.07466 | 7.51159 | 37140 ft | 449 kts | 232° |
| 2026-04-16 12:57 | 44.03361 | 7.44595 | 37141 ft | 450 kts | 232° |
| 2026-04-16 12:58 | 43.99229 | 7.38023 | 37142 ft | 451 kts | 231° |
| 2026-04-16 12:58 | 43.95093 | 7.31473 | 37141 ft | 452 kts | 231° |
| 2026-04-16 12:59 | 43.90956 | 7.24911 | 37136 ft | 452 kts | 231° |
| 2026-04-16 13:00 | 43.84727 | 7.15035 | 37135 ft | 453 kts | 231° |
| 2026-04-16 13:00 | 43.80559 | 7.08468 | 37138 ft | 453 kts | 231° |
| 2026-04-16 13:01 | 43.76412 | 7.01959 | 37136 ft | 454 kts | 231° |
| 2026-04-16 13:01 | 43.72458 | 6.95175 | 37121 ft | 450 kts | 242° |
| 2026-04-16 13:02 | 43.69867 | 6.87388 | 37114 ft | 445 kts | 251° |
| 2026-04-16 13:02 | 43.67537 | 6.79425 | 37107 ft | 446 kts | 251° |
| 2026-04-16 13:03 | 43.65180 | 6.71481 | 37118 ft | 447 kts | 251° |
| 2026-04-16 13:03 | 43.62815 | 6.63534 | 37118 ft | 447 kts | 251° |
| 2026-04-16 13:04 | 43.60457 | 6.55618 | 37120 ft | 448 kts | 251° |
| 2026-04-16 13:04 | 43.58081 | 6.47654 | 37120 ft | 448 kts | 251° |
| 2026-04-16 13:05 | 43.55702 | 6.39690 | 37108 ft | 449 kts | 251° |
| 2026-04-16 13:05 | 43.53314 | 6.31714 | 37104 ft | 449 kts | 251° |
| 2026-04-16 13:06 | 43.50917 | 6.23757 | 37120 ft | 449 kts | 251° |
| 2026-04-16 13:06 | 43.48511 | 6.15800 | 37121 ft | 450 kts | 251° |
| 2026-04-16 13:07 | 43.46120 | 6.07883 | 37123 ft | 450 kts | 251° |
| 2026-04-16 13:07 | 43.43707 | 5.99940 | 37122 ft | 450 kts | 251° |
| 2026-04-16 13:08 | 43.41285 | 5.92003 | 37125 ft | 450 kts | 251° |
| 2026-04-16 13:08 | 43.38839 | 5.84024 | 37129 ft | 450 kts | 251° |
| 2026-04-16 13:09 | 43.36410 | 5.76103 | 37131 ft | 450 kts | 251° |
| 2026-04-16 13:09 | 43.34005 | 5.68285 | 37130 ft | 449 kts | 251° |
| 2026-04-16 13:10 | 43.31564 | 5.60378 | 37137 ft | 449 kts | 251° |
| 2026-04-16 13:10 | 43.29105 | 5.52464 | 37140 ft | 449 kts | 251° |
| 2026-04-16 13:11 | 43.26658 | 5.44568 | 37146 ft | 449 kts | 251° |
| 2026-04-16 13:11 | 43.24218 | 5.36683 | 37147 ft | 449 kts | 251° |
| 2026-04-16 13:12 | 43.21761 | 5.28793 | 37144 ft | 448 kts | 250° |
| 2026-04-16 13:12 | 43.19312 | 5.20970 | 37146 ft | 448 kts | 250° |
| 2026-04-16 13:13 | 43.16847 | 5.13118 | 37150 ft | 448 kts | 250° |
| 2026-04-16 13:13 | 43.14375 | 5.05281 | 37152 ft | 448 kts | 250° |
| 2026-04-16 13:14 | 43.11909 | 4.97505 | 37155 ft | 448 kts | 250° |
| 2026-04-16 13:14 | 43.09433 | 4.89695 | 37155 ft | 448 kts | 250° |
| 2026-04-16 13:15 | 43.06930 | 4.81881 | 37163 ft | 449 kts | 246° |
| 2026-04-16 13:15 | 43.03269 | 4.74910 | 37158 ft | 457 kts | 227° |
| 2026-04-16 13:16 | 42.98506 | 4.69103 | 37156 ft | 459 kts | 224° |
| 2026-04-16 13:16 | 42.93745 | 4.63359 | 37162 ft | 459 kts | 224° |
| 2026-04-16 13:17 | 42.88962 | 4.57571 | 37166 ft | 459 kts | 224° |
| 2026-04-16 13:17 | 42.84170 | 4.51801 | 37177 ft | 459 kts | 224° |
| 2026-04-16 13:18 | 42.80154 | 4.46982 | 37172 ft | 459 kts | 224° |
| 2026-04-16 13:18 | 42.75378 | 4.41260 | 37183 ft | 459 kts | 224° |
| 2026-04-16 13:19 | 42.70583 | 4.35536 | 37195 ft | 458 kts | 224° |
| 2026-04-16 13:19 | 42.65799 | 4.29826 | 37194 ft | 456 kts | 224° |
| 2026-04-16 13:20 | 42.61017 | 4.24133 | 37193 ft | 456 kts | 224° |
| 2026-04-16 13:20 | 42.56242 | 4.18474 | 37193 ft | 455 kts | 224° |
| 2026-04-16 13:20 | 42.53845 | 4.15632 | 36669 ft | 459 kts | 224° |
| 2026-04-16 13:21 | 42.51424 | 4.12760 | 35885 ft | 464 kts | 224° |
| 2026-04-16 13:21 | 42.48981 | 4.09868 | 35130 ft | 468 kts | 224° |
| 2026-04-16 13:21 | 42.46507 | 4.06946 | 34332 ft | 473 kts | 224° |
| 2026-04-16 13:21 | 42.44049 | 4.04049 | 33619 ft | 472 kts | 224° |
| 2026-04-16 13:22 | 42.41589 | 4.01152 | 32641 ft | 466 kts | 224° |
| 2026-04-16 13:22 | 42.39147 | 3.98280 | 31706 ft | 460 kts | 224° |
| 2026-04-16 13:22 | 42.36746 | 3.95453 | 30840 ft | 454 kts | 224° |
| 2026-04-16 13:22 | 42.34375 | 3.92658 | 29924 ft | 448 kts | 224° |
| 2026-04-16 13:23 | 42.32069 | 3.89945 | 28968 ft | 441 kts | 224° |
| 2026-04-16 13:23 | 42.29738 | 3.87211 | 28028 ft | 434 kts | 223° |
| 2026-04-16 13:23 | 42.27497 | 3.84590 | 27153 ft | 428 kts | 223° |
| 2026-04-16 13:23 | 42.25231 | 3.81940 | 26267 ft | 422 kts | 223° |
| 2026-04-16 13:24 | 42.23051 | 3.79391 | 25525 ft | 415 kts | 223° |
| 2026-04-16 13:24 | 42.20906 | 3.76885 | 25128 ft | 399 kts | 223° |
| 2026-04-16 13:24 | 42.18838 | 3.74473 | 24703 ft | 386 kts | 223° |
| 2026-04-16 13:24 | 42.16841 | 3.72143 | 24291 ft | 373 kts | 223° |
| 2026-04-16 13:25 | 42.14903 | 3.69885 | 23880 ft | 362 kts | 223° |
| 2026-04-16 13:25 | 42.13019 | 3.67695 | 23433 ft | 352 kts | 223° |
| 2026-04-16 13:25 | 42.11183 | 3.65559 | 23038 ft | 347 kts | 223° |
| 2026-04-16 13:25 | 42.09466 | 3.63282 | 22627 ft | 344 kts | 233° |
| 2026-04-16 13:26 | 42.08110 | 3.60704 | 22240 ft | 340 kts | 243° |
| 2026-04-16 13:26 | 42.07088 | 3.57860 | 21840 ft | 336 kts | 249° |
| 2026-04-16 13:26 | 42.06151 | 3.54992 | 21450 ft | 334 kts | 249° |
| 2026-04-16 13:26 | 42.05193 | 3.52091 | 21037 ft | 335 kts | 249° |
| 2026-04-16 13:27 | 42.04243 | 3.49238 | 20651 ft | 334 kts | 248° |
| 2026-04-16 13:27 | 42.03302 | 3.46423 | 20251 ft | 334 kts | 248° |
| 2026-04-16 13:27 | 42.02350 | 3.43573 | 19868 ft | 333 kts | 248° |
| 2026-04-16 13:27 | 42.01402 | 3.40729 | 19460 ft | 334 kts | 248° |
| 2026-04-16 13:28 | 42.00452 | 3.37878 | 19059 ft | 334 kts | 248° |
| 2026-04-16 13:28 | 41.99502 | 3.35027 | 18653 ft | 334 kts | 248° |
| 2026-04-16 13:28 | 41.98550 | 3.32172 | 18216 ft | 334 kts | 248° |
| 2026-04-16 13:28 | 41.97596 | 3.29323 | 17803 ft | 333 kts | 248° |
| 2026-04-16 13:29 | 41.96647 | 3.26493 | 17396 ft | 331 kts | 248° |
| 2026-04-16 13:29 | 41.95701 | 3.23672 | 16988 ft | 330 kts | 248° |
| 2026-04-16 13:29 | 41.94711 | 3.20890 | 16585 ft | 330 kts | 241° |
| 2026-04-16 13:29 | 41.93415 | 3.18334 | 16178 ft | 331 kts | 236° |
| 2026-04-16 13:30 | 41.92073 | 3.15823 | 15770 ft | 331 kts | 236° |
| 2026-04-16 13:30 | 41.90731 | 3.13307 | 15362 ft | 331 kts | 236° |
| 2026-04-16 13:30 | 41.89394 | 3.10796 | 14957 ft | 330 kts | 236° |
| 2026-04-16 13:30 | 41.88060 | 3.08294 | 14552 ft | 330 kts | 236° |
| 2026-04-16 13:31 | 41.86722 | 3.05786 | 14146 ft | 331 kts | 236° |
| 2026-04-16 13:31 | 41.85381 | 3.03268 | 13717 ft | 331 kts | 237° |
| 2026-04-16 13:31 | 41.84047 | 3.00760 | 13301 ft | 329 kts | 236° |
| 2026-04-16 13:31 | 41.82718 | 2.98269 | 12906 ft | 328 kts | 236° |
| 2026-04-16 13:32 | 41.81389 | 2.95780 | 12501 ft | 327 kts | 236° |
| 2026-04-16 13:32 | 41.80062 | 2.93300 | 12110 ft | 326 kts | 236° |
| 2026-04-16 13:32 | 41.78757 | 2.90867 | 11703 ft | 325 kts | 236° |
| 2026-04-16 13:32 | 41.77437 | 2.88412 | 11299 ft | 324 kts | 236° |
| 2026-04-16 13:33 | 41.76120 | 2.85961 | 10895 ft | 324 kts | 236° |
| 2026-04-16 13:33 | 41.74805 | 2.83511 | 10506 ft | 323 kts | 236° |
| 2026-04-16 13:33 | 41.73493 | 2.81070 | 10202 ft | 321 kts | 236° |
| 2026-04-16 13:33 | 41.72212 | 2.78688 | 10169 ft | 307 kts | 236° |
| 2026-04-16 13:34 | 41.70986 | 2.76411 | 10170 ft | 297 kts | 236° |
| 2026-04-16 13:34 | 41.69782 | 2.74175 | 10133 ft | 295 kts | 236° |
| 2026-04-16 13:34 | 41.68580 | 2.71942 | 9565 ft | 295 kts | 236° |
| 2026-04-16 13:34 | 41.67383 | 2.69719 | 8948 ft | 293 kts | 236° |
| 2026-04-16 13:35 | 41.66201 | 2.67533 | 8531 ft | 284 kts | 236° |
| 2026-04-16 13:35 | 41.65043 | 2.65397 | 8378 ft | 284 kts | 236° |
| 2026-04-16 13:35 | 41.63832 | 2.63308 | 8151 ft | 285 kts | 228° |
| 2026-04-16 13:35 | 41.62378 | 2.61503 | 7801 ft | 287 kts | 224° |
| 2026-04-16 13:36 | 41.60882 | 2.59711 | 7449 ft | 288 kts | 224° |
| 2026-04-16 13:36 | 41.59396 | 2.57932 | 7208 ft | 286 kts | 223° |
| 2026-04-16 13:36 | 41.57914 | 2.56159 | 6949 ft | 285 kts | 223° |
| 2026-04-16 13:36 | 41.56445 | 2.54403 | 6666 ft | 283 kts | 224° |
| 2026-04-16 13:37 | 41.54980 | 2.52650 | 6328 ft | 282 kts | 224° |
| 2026-04-16 13:37 | 41.53523 | 2.50905 | 6000 ft | 280 kts | 224° |
| 2026-04-16 13:37 | 41.52080 | 2.49178 | 5514 ft | 277 kts | 224° |
| 2026-04-16 13:37 | 41.50652 | 2.47471 | 4931 ft | 275 kts | 223° |
| 2026-04-16 13:38 | 41.49242 | 2.45787 | 4416 ft | 269 kts | 224° |
| 2026-04-16 13:38 | 41.47867 | 2.44146 | 4118 ft | 261 kts | 224° |
| 2026-04-16 13:38 | 41.46509 | 2.42524 | 3881 ft | 260 kts | 223° |
| 2026-04-16 13:38 | 41.45183 | 2.40946 | 3813 ft | 249 kts | 223° |
| 2026-04-16 13:39 | 41.43929 | 2.39451 | 3716 ft | 240 kts | 224° |
| 2026-04-16 13:39 | 41.42705 | 2.37994 | 3609 ft | 230 kts | 224° |
| 2026-04-16 13:39 | 41.41537 | 2.36602 | 3513 ft | 220 kts | 224° |
| 2026-04-16 13:39 | 41.40419 | 2.35267 | 3415 ft | 212 kts | 224° |
| 2026-04-16 13:40 | 41.39347 | 2.33989 | 3319 ft | 202 kts | 224° |
| 2026-04-16 13:40 | 41.38351 | 2.32740 | 3236 ft | 191 kts | 232° |
| 2026-04-16 13:40 | 41.37676 | 2.31250 | 3128 ft | 186 kts | 246° |
| 2026-04-16 13:40 | 41.37145 | 2.29682 | 3058 ft | 187 kts | 247° |
| 2026-04-16 13:41 | 41.36616 | 2.28116 | 2870 ft | 185 kts | 245° |
| 2026-04-16 13:41 | 41.36086 | 2.26556 | 2649 ft | 184 kts | 246° |
| 2026-04-16 13:41 | 41.35558 | 2.25002 | 2406 ft | 184 kts | 245° |
| 2026-04-16 13:41 | 41.35034 | 2.23460 | 2178 ft | 178 kts | 244° |
| 2026-04-16 13:42 | 41.34546 | 2.22026 | 1953 ft | 161 kts | 244° |
| 2026-04-16 13:42 | 41.34109 | 2.20741 | 1744 ft | 146 kts | 244° |
| 2026-04-16 13:42 | 41.33703 | 2.19551 | 1544 ft | 139 kts | 244° |
| 2026-04-16 13:42 | 41.33308 | 2.18393 | 1359 ft | 138 kts | 243° |
| 2026-04-16 13:43 | 41.32918 | 2.17247 | 1174 ft | 136 kts | 242° |
| 2026-04-16 13:43 | 41.32528 | 2.16106 | 984 ft | 137 kts | 242° |
| 2026-04-16 13:43 | 41.32135 | 2.14954 | 811 ft | 137 kts | 240° |
| 2026-04-16 13:43 | 41.31745 | 2.13820 | 662 ft | 133 kts | 241° |
| 2026-04-16 13:44 | 41.31359 | 2.12705 | 459 ft | 133 kts | 240° |
| 2026-04-16 13:44 | 41.30984 | 2.11570 | 268 ft | 132 kts | 242° |
| 2026-04-16 13:44 | 41.30602 | 2.10466 | 85 ft | 131 kts | 242° |
| 2026-04-16 13:44 | 41.30257 | 2.09408 | 20 ft | 110 kts | 236° |
| 2026-04-16 13:45 | 41.29992 | 2.08689 | 24 ft | 62 kts | 245° |
| 2026-04-16 13:45 | 41.29924 | 2.08487 | 24 ft | 2 kts | 247° |
| 2026-04-16 13:45 | 41.29919 | 2.08463 | 25 ft | 5 kts | 262° |
| 2026-04-16 13:45 | 41.29921 | 2.08374 | 24 ft | 10 kts | 275° |
| 2026-04-16 13:46 | 41.29928 | 2.08260 | 21 ft | 16 kts | 275° |
| 2026-04-16 13:46 | 41.29940 | 2.08101 | 20 ft | 17 kts | 278° |
| 2026-04-16 13:46 | 41.30004 | 2.08003 | 18 ft | 10 kts | 339° |
| 2026-04-16 13:46 | 41.30059 | 2.07978 | 17 ft | 8 kts | 337° |
| 2026-04-16 13:47 | 41.30115 | 2.07958 | 18 ft | 10 kts | 11° |
| 2026-04-16 13:47 | 41.30157 | 2.08032 | 18 ft | 10 kts | 65° |
| 2026-04-16 13:47 | 41.30189 | 2.08122 | 20 ft | 12 kts | 65° |
| 2026-04-16 13:47 | 41.30235 | 2.08215 | 19 ft | 13 kts | 31° |
| 2026-04-16 13:48 | 41.30303 | 2.08237 | 20 ft | 2 kts | 15° |
| 2026-04-16 13:48 | 41.30312 | 2.08240 | 21 ft | 0 kts | 14° |
| 2026-04-16 13:48 | 41.30313 | 2.08241 | 21 ft | 0 kts | 14° |